Latest METARs, TAFs and NOTAMs for LIPZ


---------------------------------------------------------------------------
	(OBSERVATIONS)
LIPZ 220750Z 01007KT CAVOK M00/M06 Q1029 NOSIG=
LIPZ 220720Z 35008KT 320V020 CAVOK M01/M06 Q1029 NOSIG=
LIPZ 220650Z 01008KT 330V040 CAVOK M00/M06 Q1028 NOSIG=
LIPZ 220620Z VRB03KT CAVOK M00/M06 Q1029 NOSIG=
LIPZ 220550Z 36009KT 320V020 CAVOK M00/M06 Q1028 NOSIG=
LIPZ 220520Z 36010KT 330V030 CAVOK M01/M06 Q1028 NOSIG=
---------------------------------------------------------------------------
	(FC)
Sorry, FC For LIPZ Not Found
---------------------------------------------------------------------------
	(TERMINAL AREA FORECAST)
LIPZ 220500Z 2206/2312 03008KT CAVOK=
---------------------------------------------------------------------------
	(NOTAMS)


LIPZ A0136/17 AIRCRAFT STAND 109 CLOSED DUE TO WIP. REF AIP AD
    2 LIPZ 2-11. 10 JAN 07:44 2017 UNTIL 10 FEB 17:00 2017. CREATED:
    10 JAN 07:45 2017

LIPZ A0139/17 TAXIWAY 'C' CLOSED DUE TO TECR. REF AIP AD 2 LIPZ
    2-1. 10 JAN 08:46 2017 UNTIL 01 MAR 23:59 2017. CREATED:
    10 JAN 08:46 2017

LIPZ A0250/17 STANDARD INSTRUMENT ARRIVAL. MNM ENR ALT ALONG
    FLW LINK ROUTE/STAR SEGMENTS RAISED TO 6000FT DUE TO MIL
    HEL ACT ANNOUNCED BY NOTAM W0073/17: - LOBSI 1X BTN LOBSI-VEPAD
    - LOBSI 1U BTN LOBSI-CHI VOR/DME - LOBSI 1Y BTN LOBSI-AGAVI
    - LOBSI 1Z - SOVUB 2X BTN SOVUB-PZ507 - SOVUB 1Y BTN SOVUB-INDOD
    - SOVUB 1Z - ROVIG 1W BTN ROVIG-AGAVI - ROVIG 4A BTN ROVIG-PZ505
    - ROVIG 1Y BTN ROVIG-PZ514 - ROVIG 1X BTN ROVIG-VEPAD - ROVIG
    1Z REF AIP AD 2 LIPZ 4. MON-THU 0900-2100 AND FRI 0800-1500,
    16 JAN 09:00 2017 UNTIL 31 JAN 21:00 2017. CREATED: 16 JAN
    08:55 2017

LIPZ A0372/17 AERODROME CLOSED TO ALL TRAFFIC DUE TO WIP REF
    AIP AD 2 LIPZ 1-1. 23 JAN 23:30 2017 UNTIL 24 JAN 03:30 2017.
    CREATED: 19 JAN 08:45 2017

LIPZ A0392/17 INSTRUMENT APPROACH PROCEDURE. FLW RESTRICTIONS
    APPLY DUE TO MIL AIR ACT ANNOUNCED BY NOTAM W0125/17: 1.
    FLW INSTR APCH PROC SUSPENDED - VOR RWY 22R (ATC DISCRETION)
    - RNAV (GNSS) RWY 22L 2. VOR RWY 22L: INT RDL 090 TES VOR/ARC
    9NM TES DME TO BE CROSSED BTN 3500FT AMSL AND 4500FT AMSL
    RMK: ABOVE MENTIONED RESTRICTIONS SHALL BE APPLIED ON TACTICAL
    BASIS BY VENEZIA APP REF AIP AD 2 LIPZ 5. DAILY 1250-1900,
    23 JAN 12:50 2017 UNTIL 26 JAN 19:00 2017. CREATED: 19 JAN
    15:23 2017

LIPZ A0440/17 AERODROME CONTROL SERVICE. GROUND MOVEMENT CONTROL
    PROVIDED WITHOUT USE OF SMR DUE TO APPARATUS UNSERVICEABLE
    REF AIP AD 2 LIPZ 1-11. 26 JAN 08:00 2017 UNTIL 26 JAN 11:00
    2017. CREATED: 20 JAN 14:54 2017

LIPZ A4402/15 REF AIP AD 2 LIPZ 6-21 STANDARD INSTRUMENT DEPARTURE
    PROCEDURE RWY 22L/R DESCRIPTION SID LUMAV 5V (ATC DISCRETION)
    ON TABLE DESCRIPTION ON ROW REFERRED TO WAYPOINT LUMAV MODIFY
    COLUMN 'BEARING/RANGE TO NAVAID' TO READ RDL 215/D53 INSTEAD
    OF RDL 215/D32 OTHER DATA UNCHANGED. 02 JUL 12:40 2015 UNTIL
    PERM. CREATED: 02 JUL 12:40 2015

LIPZ A8341/16 AIRCRAFT DE-ICING. FREQUENCY 131.465MHZ USED FOR
    COMMUNICATION DURING DE-ICING BTN AIRCRAFT PILOT IN COMMAND
    AND AD OPERATOR (SAVE SPA) CHANGE TO 131.880MHZ DUE TO TECR
    REF AIP AD 2 LIPZ 1-14. 28 NOV 14:17 2016 UNTIL 27 JAN 17:00
    2017. CREATED: 28 NOV 14:17 2016

LIPZ A8654/16 AERODROME CLOSED TO ALL TRAFFIC DUE TO WIP. REF
    AIP AD 2 LIPZ 1-1. TUE AND WED 2300-0330, 10 JAN 23:00 2017
    UNTIL 16 FEB 03:30 2017. CREATED: 12 DEC 16:17 2016

LIPZ A8778/15 REF AIP AD 2 LIPZ 6-9 AND 6-14 (AIRAC 12/15 - EFFECTIVE
    DATE 7 JAN 2016) STANDARD INSTRUMENT DEPARTURE RWY 04L/R
    (TES VOR/DME) MODIFY SID CODE TO READ ROKIB 5W INSTEAD OF
    ROKIB 5V OTHER DATA UNCHANGED. 07 JAN 00:00 2016 UNTIL PERM.
    CREATED: 14 DEC 10:17 2015

LIPZ A8885/16 TRIGGER NOTAM-PERM AIP AIRAC AMDT 13/16 EFFECTIVE
    DATE 02 FEB 2017 VENEZIA/TESSERA AD - TABLE CONCERNING APPROACH
    AND RUNWAY LIGHTING UPDATED - AERODROME CHARTS AND AIRCRAFT
    PARKING DOCKING CHART UPDATED AIRAC IS POSTED AND AVBL ON
    WEBSITE WWW.ENAV.IT. 02 FEB 00:00 2017 UNTIL 15 FEB 23:59
    2017. CREATED: 22 DEC 19:08 2016

LIPZ F0015/07 [DEFENSE ENERGY SUPPORT CENTER ADVISORY] FUEL AVAILABILITY
    NOT AVAILABLE PHONE AHEAD FOR FUEL AVAILABILITY. 12 JUL 10:20
    2020 UNTIL 01 AUG 25:20 2020

---------------------------------------------------------------------------